<?xml version="1.0" encoding="UTF-8" standalone="no" ?>
<gpx xmlns="http://www.topografix.com/GPX/1/1" xmlns:xsi="http://www.w3.org/2001/XMLSchema-instance" xsi:schemaLocation="http://www.topografix.com/GPX/1/1 http://www.topografix.com/GPX/1/1/gpx.xsd" version="1.1" creator="VisuGPX - https://www.visugpx.com">
  <metadata>
    <name>Parcours Cross CQC VTT Jura 2012</name>
    <desc><![CDATA[Reconnaissance ]]></desc>
  </metadata>
  <trk>
    <name><![CDATA[Parcours Cross CQC VTT Jura 2012_1]]></name>
    <trkseg>
      <trkpt lat="46.56208" lon="6.03856">
        <ele>1025</ele>
        <time>2012-09-20T17:55:04+02:00</time>
      </trkpt>
      <trkpt lat="46.56215" lon="6.03858">
        <ele>1025</ele>
        <time>2012-09-20T17:55:09+02:00</time>
      </trkpt>
      <trkpt lat="46.5623" lon="6.03861">
        <ele>1025</ele>
        <time>2012-09-20T17:55:18+02:00</time>
      </trkpt>
      <trkpt lat="46.56247" lon="6.03865">
        <ele>1025</ele>
        <time>2012-09-20T17:55:26+02:00</time>
      </trkpt>
      <trkpt lat="46.56259" lon="6.03866">
        <ele>1025</ele>
        <time>2012-09-20T17:55:31+02:00</time>
      </trkpt>
      <trkpt lat="46.56274" lon="6.03866">
        <ele>1025</ele>
        <time>2012-09-20T17:55:36+02:00</time>
      </trkpt>
      <trkpt lat="46.56279" lon="6.03867">
        <ele>1026</ele>
        <time>2012-09-20T17:55:38+02:00</time>
      </trkpt>
      <trkpt lat="46.56289" lon="6.03868">
        <ele>1026</ele>
        <time>2012-09-20T17:55:42+02:00</time>
      </trkpt>
      <trkpt lat="46.56309" lon="6.03875">
        <ele>1026</ele>
        <time>2012-09-20T17:55:50+02:00</time>
      </trkpt>
      <trkpt lat="46.56324" lon="6.03886">
        <ele>1027</ele>
        <time>2012-09-20T17:55:57+02:00</time>
      </trkpt>
      <trkpt lat="46.56335" lon="6.03899">
        <ele>1027</ele>
        <time>2012-09-20T17:56:02+02:00</time>
      </trkpt>
      <trkpt lat="46.56344" lon="6.03913">
        <ele>1028</ele>
        <time>2012-09-20T17:56:08+02:00</time>
      </trkpt>
      <trkpt lat="46.56357" lon="6.03929">
        <ele>1031</ele>
        <time>2012-09-20T17:56:15+02:00</time>
      </trkpt>
      <trkpt lat="46.56371" lon="6.03935">
        <ele>1031</ele>
        <time>2012-09-20T17:56:20+02:00</time>
      </trkpt>
      <trkpt lat="46.56383" lon="6.03946">
        <ele>1031</ele>
        <time>2012-09-20T17:56:25+02:00</time>
      </trkpt>
      <trkpt lat="46.56396" lon="6.03965">
        <ele>1032</ele>
        <time>2012-09-20T17:56:31+02:00</time>
      </trkpt>
      <trkpt lat="46.56406" lon="6.03989">
        <ele>1033</ele>
        <time>2012-09-20T17:56:37+02:00</time>
      </trkpt>
      <trkpt lat="46.56407" lon="6.03992">
        <ele>1033</ele>
        <time>2012-09-20T17:56:38+02:00</time>
      </trkpt>
      <trkpt lat="46.5641" lon="6.04004">
        <ele>1037</ele>
        <time>2012-09-20T17:56:42+02:00</time>
      </trkpt>
      <trkpt lat="46.56414" lon="6.04008">
        <ele>1037</ele>
        <time>2012-09-20T17:56:44+02:00</time>
      </trkpt>
      <trkpt lat="46.56424" lon="6.04021">
        <ele>1036</ele>
        <time>2012-09-20T17:56:50+02:00</time>
      </trkpt>
      <trkpt lat="46.56437" lon="6.04034">
        <ele>1037</ele>
        <time>2012-09-20T17:56:56+02:00</time>
      </trkpt>
      <trkpt lat="46.56445" lon="6.04046">
        <ele>1038</ele>
        <time>2012-09-20T17:57:01+02:00</time>
      </trkpt>
      <trkpt lat="46.56455" lon="6.04061">
        <ele>1038</ele>
        <time>2012-09-20T17:57:05+02:00</time>
      </trkpt>
      <trkpt lat="46.56459" lon="6.04064">
        <ele>1038</ele>
        <time>2012-09-20T17:57:06+02:00</time>
      </trkpt>
      <trkpt lat="46.56487" lon="6.04081">
        <ele>1035</ele>
        <time>2012-09-20T17:57:12+02:00</time>
      </trkpt>
      <trkpt lat="46.56525" lon="6.04101">
        <ele>1036</ele>
        <time>2012-09-20T17:57:19+02:00</time>
      </trkpt>
      <trkpt lat="46.56562" lon="6.04124">
        <ele>1038</ele>
        <time>2012-09-20T17:57:27+02:00</time>
      </trkpt>
      <trkpt lat="46.5657" lon="6.0413">
        <ele>1038</ele>
        <time>2012-09-20T17:57:29+02:00</time>
      </trkpt>
      <trkpt lat="46.56581" lon="6.04138">
        <ele>1040</ele>
        <time>2012-09-20T17:57:32+02:00</time>
      </trkpt>
      <trkpt lat="46.56596" lon="6.04152">
        <ele>1042</ele>
        <time>2012-09-20T17:57:36+02:00</time>
      </trkpt>
      <trkpt lat="46.56608" lon="6.0416">
        <ele>1042</ele>
        <time>2012-09-20T17:57:39+02:00</time>
      </trkpt>
      <trkpt lat="46.56628" lon="6.04164">
        <ele>1042</ele>
        <time>2012-09-20T17:57:45+02:00</time>
      </trkpt>
      <trkpt lat="46.56641" lon="6.04161">
        <ele>1042</ele>
        <time>2012-09-20T17:57:50+02:00</time>
      </trkpt>
      <trkpt lat="46.56654" lon="6.04148">
        <ele>1042</ele>
        <time>2012-09-20T17:57:57+02:00</time>
      </trkpt>
      <trkpt lat="46.56669" lon="6.04135">
        <ele>1044</ele>
        <time>2012-09-20T17:58:03+02:00</time>
      </trkpt>
      <trkpt lat="46.56683" lon="6.04135">
        <ele>1045</ele>
        <time>2012-09-20T17:58:08+02:00</time>
      </trkpt>
      <trkpt lat="46.56697" lon="6.04134">
        <ele>1045</ele>
        <time>2012-09-20T17:58:13+02:00</time>
      </trkpt>
      <trkpt lat="46.56711" lon="6.04135">
        <ele>1046</ele>
        <time>2012-09-20T17:58:19+02:00</time>
      </trkpt>
      <trkpt lat="46.56723" lon="6.04138">
        <ele>1046</ele>
        <time>2012-09-20T17:58:24+02:00</time>
      </trkpt>
      <trkpt lat="46.56735" lon="6.04142">
        <ele>1047</ele>
        <time>2012-09-20T17:58:29+02:00</time>
      </trkpt>
      <trkpt lat="46.56755" lon="6.04148">
        <ele>1050</ele>
        <time>2012-09-20T17:58:37+02:00</time>
      </trkpt>
      <trkpt lat="46.56768" lon="6.04156">
        <ele>1050</ele>
        <time>2012-09-20T17:58:43+02:00</time>
      </trkpt>
      <trkpt lat="46.56781" lon="6.04161">
        <ele>1051</ele>
        <time>2012-09-20T17:58:49+02:00</time>
      </trkpt>
      <trkpt lat="46.56788" lon="6.04163">
        <ele>1051</ele>
        <time>2012-09-20T17:58:53+02:00</time>
      </trkpt>
      <trkpt lat="46.56797" lon="6.04172">
        <ele>1052</ele>
        <time>2012-09-20T17:58:59+02:00</time>
      </trkpt>
      <trkpt lat="46.56801" lon="6.04175">
        <ele>1052</ele>
        <time>2012-09-20T17:59:03+02:00</time>
      </trkpt>
      <trkpt lat="46.56805" lon="6.04178">
        <ele>1052</ele>
        <time>2012-09-20T17:59:12+02:00</time>
      </trkpt>
      <trkpt lat="46.56815" lon="6.04184">
        <ele>1052</ele>
        <time>2012-09-20T17:59:17+02:00</time>
      </trkpt>
      <trkpt lat="46.56828" lon="6.04191">
        <ele>1053</ele>
        <time>2012-09-20T17:59:22+02:00</time>
      </trkpt>
      <trkpt lat="46.56839" lon="6.04198">
        <ele>1054</ele>
        <time>2012-09-20T17:59:26+02:00</time>
      </trkpt>
      <trkpt lat="46.56843" lon="6.04203">
        <ele>1054</ele>
        <time>2012-09-20T17:59:28+02:00</time>
      </trkpt>
      <trkpt lat="46.56853" lon="6.04223">
        <ele>1054</ele>
        <time>2012-09-20T17:59:34+02:00</time>
      </trkpt>
      <trkpt lat="46.56865" lon="6.04247">
        <ele>1054</ele>
        <time>2012-09-20T17:59:41+02:00</time>
      </trkpt>
      <trkpt lat="46.56871" lon="6.04272">
        <ele>1052</ele>
        <time>2012-09-20T17:59:47+02:00</time>
      </trkpt>
      <trkpt lat="46.56886" lon="6.04299">
        <ele>1052</ele>
        <time>2012-09-20T17:59:54+02:00</time>
      </trkpt>
      <trkpt lat="46.56894" lon="6.04325">
        <ele>1053</ele>
        <time>2012-09-20T18:00:00+02:00</time>
      </trkpt>
      <trkpt lat="46.56886" lon="6.04343">
        <ele>1052</ele>
        <time>2012-09-20T18:00:04+02:00</time>
      </trkpt>
      <trkpt lat="46.56867" lon="6.04376">
        <ele>1051</ele>
        <time>2012-09-20T18:00:12+02:00</time>
      </trkpt>
      <trkpt lat="46.56852" lon="6.04404">
        <ele>1051</ele>
        <time>2012-09-20T18:00:19+02:00</time>
      </trkpt>
      <trkpt lat="46.56838" lon="6.04428">
        <ele>1053</ele>
        <time>2012-09-20T18:00:26+02:00</time>
      </trkpt>
      <trkpt lat="46.56823" lon="6.04453">
        <ele>1060</ele>
        <time>2012-09-20T18:00:35+02:00</time>
      </trkpt>
      <trkpt lat="46.56811" lon="6.04476">
        <ele>1062</ele>
        <time>2012-09-20T18:00:44+02:00</time>
      </trkpt>
      <trkpt lat="46.56808" lon="6.04482">
        <ele>1062</ele>
        <time>2012-09-20T18:00:47+02:00</time>
      </trkpt>
      <trkpt lat="46.56796" lon="6.04495">
        <ele>1063</ele>
        <time>2012-09-20T18:00:55+02:00</time>
      </trkpt>
      <trkpt lat="46.56784" lon="6.04511">
        <ele>1071</ele>
        <time>2012-09-20T18:01:03+02:00</time>
      </trkpt>
      <trkpt lat="46.56774" lon="6.04526">
        <ele>1072</ele>
        <time>2012-09-20T18:01:11+02:00</time>
      </trkpt>
      <trkpt lat="46.56765" lon="6.04536">
        <ele>1074</ele>
        <time>2012-09-20T18:01:17+02:00</time>
      </trkpt>
      <trkpt lat="46.56754" lon="6.04546">
        <ele>1075</ele>
        <time>2012-09-20T18:01:24+02:00</time>
      </trkpt>
      <trkpt lat="46.56744" lon="6.04554">
        <ele>1083</ele>
        <time>2012-09-20T18:01:31+02:00</time>
      </trkpt>
      <trkpt lat="46.5673" lon="6.0456">
        <ele>1084</ele>
        <time>2012-09-20T18:01:40+02:00</time>
      </trkpt>
      <trkpt lat="46.56725" lon="6.04556">
        <ele>1083</ele>
        <time>2012-09-20T18:01:45+02:00</time>
      </trkpt>
      <trkpt lat="46.56714" lon="6.04551">
        <ele>1084</ele>
        <time>2012-09-20T18:01:52+02:00</time>
      </trkpt>
      <trkpt lat="46.56705" lon="6.04554">
        <ele>1084</ele>
        <time>2012-09-20T18:01:56+02:00</time>
      </trkpt>
      <trkpt lat="46.56697" lon="6.04558">
        <ele>1085</ele>
        <time>2012-09-20T18:02:00+02:00</time>
      </trkpt>
      <trkpt lat="46.56682" lon="6.04564">
        <ele>1087</ele>
        <time>2012-09-20T18:02:08+02:00</time>
      </trkpt>
      <trkpt lat="46.5667" lon="6.04567">
        <ele>1089</ele>
        <time>2012-09-20T18:02:14+02:00</time>
      </trkpt>
      <trkpt lat="46.56662" lon="6.0457">
        <ele>1091</ele>
        <time>2012-09-20T18:02:19+02:00</time>
      </trkpt>
      <trkpt lat="46.56648" lon="6.04583">
        <ele>1091</ele>
        <time>2012-09-20T18:02:26+02:00</time>
      </trkpt>
      <trkpt lat="46.56643" lon="6.04598">
        <ele>1098</ele>
        <time>2012-09-20T18:02:32+02:00</time>
      </trkpt>
      <trkpt lat="46.5664" lon="6.04614">
        <ele>1099</ele>
        <time>2012-09-20T18:02:38+02:00</time>
      </trkpt>
      <trkpt lat="46.56634" lon="6.04629">
        <ele>1100</ele>
        <time>2012-09-20T18:02:44+02:00</time>
      </trkpt>
      <trkpt lat="46.56624" lon="6.04646">
        <ele>1101</ele>
        <time>2012-09-20T18:02:52+02:00</time>
      </trkpt>
      <trkpt lat="46.56615" lon="6.0465">
        <ele>1101</ele>
        <time>2012-09-20T18:02:58+02:00</time>
      </trkpt>
      <trkpt lat="46.56606" lon="6.04651">
        <ele>1101</ele>
        <time>2012-09-20T18:03:04+02:00</time>
      </trkpt>
      <trkpt lat="46.56598" lon="6.04659">
        <ele>1102</ele>
        <time>2012-09-20T18:03:09+02:00</time>
      </trkpt>
      <trkpt lat="46.56591" lon="6.04677">
        <ele>1107</ele>
        <time>2012-09-20T18:03:15+02:00</time>
      </trkpt>
      <trkpt lat="46.56585" lon="6.04691">
        <ele>1108</ele>
        <time>2012-09-20T18:03:19+02:00</time>
      </trkpt>
      <trkpt lat="46.56574" lon="6.04724">
        <ele>1108</ele>
        <time>2012-09-20T18:03:26+02:00</time>
      </trkpt>
      <trkpt lat="46.56568" lon="6.04743">
        <ele>1109</ele>
        <time>2012-09-20T18:03:31+02:00</time>
      </trkpt>
      <trkpt lat="46.56563" lon="6.04766">
        <ele>1112</ele>
        <time>2012-09-20T18:03:36+02:00</time>
      </trkpt>
      <trkpt lat="46.56559" lon="6.04783">
        <ele>1112</ele>
        <time>2012-09-20T18:03:40+02:00</time>
      </trkpt>
      <trkpt lat="46.56554" lon="6.04793">
        <ele>1113</ele>
        <time>2012-09-20T18:03:44+02:00</time>
      </trkpt>
      <trkpt lat="46.5654" lon="6.04801">
        <ele>1113</ele>
        <time>2012-09-20T18:03:50+02:00</time>
      </trkpt>
      <trkpt lat="46.56528" lon="6.0481">
        <ele>1113</ele>
        <time>2012-09-20T18:03:55+02:00</time>
      </trkpt>
      <trkpt lat="46.56519" lon="6.04821">
        <ele>1113</ele>
        <time>2012-09-20T18:04:00+02:00</time>
      </trkpt>
      <trkpt lat="46.56514" lon="6.04839">
        <ele>1116</ele>
        <time>2012-09-20T18:04:05+02:00</time>
      </trkpt>
      <trkpt lat="46.56514" lon="6.04842">
        <ele>1116</ele>
        <time>2012-09-20T18:04:06+02:00</time>
      </trkpt>
      <trkpt lat="46.56522" lon="6.04857">
        <ele>1117</ele>
        <time>2012-09-20T18:04:11+02:00</time>
      </trkpt>
      <trkpt lat="46.56523" lon="6.04862">
        <ele>1117</ele>
        <time>2012-09-20T18:04:13+02:00</time>
      </trkpt>
      <trkpt lat="46.56519" lon="6.04878">
        <ele>1117</ele>
        <time>2012-09-20T18:04:19+02:00</time>
      </trkpt>
      <trkpt lat="46.56508" lon="6.04898">
        <ele>1118</ele>
        <time>2012-09-20T18:04:26+02:00</time>
      </trkpt>
      <trkpt lat="46.56491" lon="6.04907">
        <ele>1117</ele>
        <time>2012-09-20T18:04:32+02:00</time>
      </trkpt>
      <trkpt lat="46.56472" lon="6.0491">
        <ele>1116</ele>
        <time>2012-09-20T18:04:36+02:00</time>
      </trkpt>
      <trkpt lat="46.56457" lon="6.04906">
        <ele>1116</ele>
        <time>2012-09-20T18:04:39+02:00</time>
      </trkpt>
      <trkpt lat="46.56448" lon="6.04902">
        <ele>1116</ele>
        <time>2012-09-20T18:04:41+02:00</time>
      </trkpt>
      <trkpt lat="46.56429" lon="6.04903">
        <ele>1115</ele>
        <time>2012-09-20T18:04:45+02:00</time>
      </trkpt>
      <trkpt lat="46.5641" lon="6.04909">
        <ele>1116</ele>
        <time>2012-09-20T18:04:50+02:00</time>
      </trkpt>
      <trkpt lat="46.56406" lon="6.04908">
        <ele>1116</ele>
        <time>2012-09-20T18:04:51+02:00</time>
      </trkpt>
      <trkpt lat="46.56395" lon="6.0491">
        <ele>1116</ele>
        <time>2012-09-20T18:04:54+02:00</time>
      </trkpt>
      <trkpt lat="46.56385" lon="6.0491">
        <ele>1116</ele>
        <time>2012-09-20T18:04:56+02:00</time>
      </trkpt>
      <trkpt lat="46.56368" lon="6.04911">
        <ele>1116</ele>
        <time>2012-09-20T18:05:00+02:00</time>
      </trkpt>
      <trkpt lat="46.56349" lon="6.04915">
        <ele>1118</ele>
        <time>2012-09-20T18:05:06+02:00</time>
      </trkpt>
      <trkpt lat="46.56338" lon="6.04915">
        <ele>1119</ele>
        <time>2012-09-20T18:05:10+02:00</time>
      </trkpt>
      <trkpt lat="46.56328" lon="6.04918">
        <ele>1121</ele>
        <time>2012-09-20T18:05:15+02:00</time>
      </trkpt>
      <trkpt lat="46.56318" lon="6.04921">
        <ele>1123</ele>
        <time>2012-09-20T18:05:21+02:00</time>
      </trkpt>
      <trkpt lat="46.56306" lon="6.04921">
        <ele>1124</ele>
        <time>2012-09-20T18:05:26+02:00</time>
      </trkpt>
      <trkpt lat="46.56295" lon="6.04922">
        <ele>1124</ele>
        <time>2012-09-20T18:05:31+02:00</time>
      </trkpt>
      <trkpt lat="46.56281" lon="6.04926">
        <ele>1125</ele>
        <time>2012-09-20T18:05:37+02:00</time>
      </trkpt>
      <trkpt lat="46.5627" lon="6.04934">
        <ele>1125</ele>
        <time>2012-09-20T18:05:41+02:00</time>
      </trkpt>
      <trkpt lat="46.56253" lon="6.04944">
        <ele>1125</ele>
        <time>2012-09-20T18:05:48+02:00</time>
      </trkpt>
      <trkpt lat="46.56243" lon="6.04957">
        <ele>1130</ele>
        <time>2012-09-20T18:05:52+02:00</time>
      </trkpt>
      <trkpt lat="46.56238" lon="6.0498">
        <ele>1130</ele>
        <time>2012-09-20T18:05:58+02:00</time>
      </trkpt>
      <trkpt lat="46.56239" lon="6.04991">
        <ele>1130</ele>
        <time>2012-09-20T18:06:02+02:00</time>
      </trkpt>
      <trkpt lat="46.56242" lon="6.05005">
        <ele>1131</ele>
        <time>2012-09-20T18:06:07+02:00</time>
      </trkpt>
      <trkpt lat="46.56244" lon="6.05017">
        <ele>1132</ele>
        <time>2012-09-20T18:06:12+02:00</time>
      </trkpt>
      <trkpt lat="46.56243" lon="6.05026">
        <ele>1133</ele>
        <time>2012-09-20T18:06:17+02:00</time>
      </trkpt>
      <trkpt lat="46.5624" lon="6.05036">
        <ele>1133</ele>
        <time>2012-09-20T18:06:22+02:00</time>
      </trkpt>
      <trkpt lat="46.56236" lon="6.05046">
        <ele>1134</ele>
        <time>2012-09-20T18:06:27+02:00</time>
      </trkpt>
      <trkpt lat="46.56231" lon="6.05061">
        <ele>1134</ele>
        <time>2012-09-20T18:06:33+02:00</time>
      </trkpt>
      <trkpt lat="46.56223" lon="6.05079">
        <ele>1135</ele>
        <time>2012-09-20T18:06:39+02:00</time>
      </trkpt>
      <trkpt lat="46.56218" lon="6.05091">
        <ele>1138</ele>
        <time>2012-09-20T18:06:43+02:00</time>
      </trkpt>
      <trkpt lat="46.56215" lon="6.05104">
        <ele>1138</ele>
        <time>2012-09-20T18:06:47+02:00</time>
      </trkpt>
      <trkpt lat="46.56216" lon="6.05108">
        <ele>1138</ele>
        <time>2012-09-20T18:06:48+02:00</time>
      </trkpt>
      <trkpt lat="46.56216" lon="6.05129">
        <ele>1139</ele>
        <time>2012-09-20T18:06:53+02:00</time>
      </trkpt>
      <trkpt lat="46.5621" lon="6.0515">
        <ele>1140</ele>
        <time>2012-09-20T18:06:58+02:00</time>
      </trkpt>
      <trkpt lat="46.56208" lon="6.05165">
        <ele>1140</ele>
        <time>2012-09-20T18:07:04+02:00</time>
      </trkpt>
      <trkpt lat="46.56208" lon="6.05167">
        <ele>1143</ele>
        <time>2012-09-20T18:07:05+02:00</time>
      </trkpt>
      <trkpt lat="46.56207" lon="6.05188">
        <ele>1144</ele>
        <time>2012-09-20T18:07:12+02:00</time>
      </trkpt>
      <trkpt lat="46.56206" lon="6.05205">
        <ele>1144</ele>
        <time>2012-09-20T18:07:18+02:00</time>
      </trkpt>
      <trkpt lat="46.56206" lon="6.0522">
        <ele>1144</ele>
        <time>2012-09-20T18:07:22+02:00</time>
      </trkpt>
      <trkpt lat="46.56206" lon="6.05224">
        <ele>1144</ele>
        <time>2012-09-20T18:07:23+02:00</time>
      </trkpt>
      <trkpt lat="46.56201" lon="6.05247">
        <ele>1145</ele>
        <time>2012-09-20T18:07:29+02:00</time>
      </trkpt>
      <trkpt lat="46.56192" lon="6.05267">
        <ele>1146</ele>
        <time>2012-09-20T18:07:34+02:00</time>
      </trkpt>
      <trkpt lat="46.5618" lon="6.0529">
        <ele>1146</ele>
        <time>2012-09-20T18:07:39+02:00</time>
      </trkpt>
      <trkpt lat="46.56182" lon="6.05311">
        <ele>1146</ele>
        <time>2012-09-20T18:07:44+02:00</time>
      </trkpt>
      <trkpt lat="46.56184" lon="6.05314">
        <ele>1146</ele>
        <time>2012-09-20T18:07:45+02:00</time>
      </trkpt>
      <trkpt lat="46.56184" lon="6.05326">
        <ele>1146</ele>
        <time>2012-09-20T18:07:49+02:00</time>
      </trkpt>
      <trkpt lat="46.5618" lon="6.05349">
        <ele>1145</ele>
        <time>2012-09-20T18:07:57+02:00</time>
      </trkpt>
      <trkpt lat="46.56179" lon="6.05351">
        <ele>1144</ele>
        <time>2012-09-20T18:07:58+02:00</time>
      </trkpt>
      <trkpt lat="46.56177" lon="6.0535">
        <ele>1145</ele>
        <time>2012-09-20T18:08:01+02:00</time>
      </trkpt>
      <trkpt lat="46.56177" lon="6.05349">
        <ele>1145</ele>
        <time>2012-09-20T18:08:02+02:00</time>
      </trkpt>
      <trkpt lat="46.56169" lon="6.05334">
        <ele>1146</ele>
        <time>2012-09-20T18:09:48+02:00</time>
      </trkpt>
      <trkpt lat="46.5617" lon="6.05335">
        <ele>1146</ele>
        <time>2012-09-20T18:09:49+02:00</time>
      </trkpt>
      <trkpt lat="46.56168" lon="6.05333">
        <ele>1146</ele>
        <time>2012-09-20T18:09:53+02:00</time>
      </trkpt>
      <trkpt lat="46.56167" lon="6.05331">
        <ele>1146</ele>
        <time>2012-09-20T18:09:54+02:00</time>
      </trkpt>
      <trkpt lat="46.56157" lon="6.05325">
        <ele>1145</ele>
        <time>2012-09-20T18:09:59+02:00</time>
      </trkpt>
      <trkpt lat="46.56153" lon="6.05325">
        <ele>1145</ele>
        <time>2012-09-20T18:10:01+02:00</time>
      </trkpt>
      <trkpt lat="46.56143" lon="6.05325">
        <ele>1144</ele>
        <time>2012-09-20T18:10:07+02:00</time>
      </trkpt>
      <trkpt lat="46.56139" lon="6.05325">
        <ele>1144</ele>
        <time>2012-09-20T18:10:09+02:00</time>
      </trkpt>
      <trkpt lat="46.56124" lon="6.05318">
        <ele>1143</ele>
        <time>2012-09-20T18:10:16+02:00</time>
      </trkpt>
      <trkpt lat="46.56117" lon="6.05313">
        <ele>1143</ele>
        <time>2012-09-20T18:10:20+02:00</time>
      </trkpt>
      <trkpt lat="46.56108" lon="6.05298">
        <ele>1143</ele>
        <time>2012-09-20T18:10:24+02:00</time>
      </trkpt>
      <trkpt lat="46.56097" lon="6.05284">
        <ele>1143</ele>
        <time>2012-09-20T18:10:29+02:00</time>
      </trkpt>
      <trkpt lat="46.56085" lon="6.0528">
        <ele>1143</ele>
        <time>2012-09-20T18:10:34+02:00</time>
      </trkpt>
      <trkpt lat="46.56077" lon="6.05276">
        <ele>1138</ele>
        <time>2012-09-20T18:10:37+02:00</time>
      </trkpt>
      <trkpt lat="46.56061" lon="6.05257">
        <ele>1138</ele>
        <time>2012-09-20T18:10:43+02:00</time>
      </trkpt>
      <trkpt lat="46.56051" lon="6.0524">
        <ele>1142</ele>
        <time>2012-09-20T18:10:47+02:00</time>
      </trkpt>
      <trkpt lat="46.56047" lon="6.05232">
        <ele>1142</ele>
        <time>2012-09-20T18:10:49+02:00</time>
      </trkpt>
      <trkpt lat="46.56047" lon="6.05212">
        <ele>1143</ele>
        <time>2012-09-20T18:10:54+02:00</time>
      </trkpt>
      <trkpt lat="46.56045" lon="6.05208">
        <ele>1143</ele>
        <time>2012-09-20T18:10:55+02:00</time>
      </trkpt>
      <trkpt lat="46.56039" lon="6.05183">
        <ele>1144</ele>
        <time>2012-09-20T18:11:00+02:00</time>
      </trkpt>
      <trkpt lat="46.56036" lon="6.05155">
        <ele>1147</ele>
        <time>2012-09-20T18:11:05+02:00</time>
      </trkpt>
      <trkpt lat="46.56026" lon="6.05124">
        <ele>1148</ele>
        <time>2012-09-20T18:11:10+02:00</time>
      </trkpt>
      <trkpt lat="46.56012" lon="6.05103">
        <ele>1149</ele>
        <time>2012-09-20T18:11:14+02:00</time>
      </trkpt>
      <trkpt lat="46.55985" lon="6.05065">
        <ele>1148</ele>
        <time>2012-09-20T18:11:20+02:00</time>
      </trkpt>
      <trkpt lat="46.55981" lon="6.0506">
        <ele>1148</ele>
        <time>2012-09-20T18:11:21+02:00</time>
      </trkpt>
      <trkpt lat="46.55973" lon="6.05053">
        <ele>1148</ele>
        <time>2012-09-20T18:11:23+02:00</time>
      </trkpt>
      <trkpt lat="46.55955" lon="6.05044">
        <ele>1147</ele>
        <time>2012-09-20T18:11:28+02:00</time>
      </trkpt>
      <trkpt lat="46.55937" lon="6.05043">
        <ele>1147</ele>
        <time>2012-09-20T18:11:33+02:00</time>
      </trkpt>
      <trkpt lat="46.5593" lon="6.05041">
        <ele>1146</ele>
        <time>2012-09-20T18:11:35+02:00</time>
      </trkpt>
      <trkpt lat="46.55917" lon="6.05031">
        <ele>1142</ele>
        <time>2012-09-20T18:11:39+02:00</time>
      </trkpt>
      <trkpt lat="46.55901" lon="6.05014">
        <ele>1143</ele>
        <time>2012-09-20T18:11:44+02:00</time>
      </trkpt>
      <trkpt lat="46.55886" lon="6.05001">
        <ele>1142</ele>
        <time>2012-09-20T18:11:48+02:00</time>
      </trkpt>
      <trkpt lat="46.55866" lon="6.04985">
        <ele>1149</ele>
        <time>2012-09-20T18:11:54+02:00</time>
      </trkpt>
      <trkpt lat="46.55864" lon="6.04983">
        <ele>1149</ele>
        <time>2012-09-20T18:11:55+02:00</time>
      </trkpt>
      <trkpt lat="46.55846" lon="6.04968">
        <ele>1149</ele>
        <time>2012-09-20T18:12:00+02:00</time>
      </trkpt>
      <trkpt lat="46.55836" lon="6.04965">
        <ele>1149</ele>
        <time>2012-09-20T18:12:02+02:00</time>
      </trkpt>
      <trkpt lat="46.55824" lon="6.04961">
        <ele>1145</ele>
        <time>2012-09-20T18:12:05+02:00</time>
      </trkpt>
      <trkpt lat="46.55809" lon="6.04947">
        <ele>1146</ele>
        <time>2012-09-20T18:12:10+02:00</time>
      </trkpt>
      <trkpt lat="46.558" lon="6.04935">
        <ele>1147</ele>
        <time>2012-09-20T18:12:14+02:00</time>
      </trkpt>
      <trkpt lat="46.5579" lon="6.0493">
        <ele>1147</ele>
        <time>2012-09-20T18:12:18+02:00</time>
      </trkpt>
      <trkpt lat="46.55769" lon="6.04919">
        <ele>1148</ele>
        <time>2012-09-20T18:12:25+02:00</time>
      </trkpt>
      <trkpt lat="46.55757" lon="6.04914">
        <ele>1153</ele>
        <time>2012-09-20T18:12:30+02:00</time>
      </trkpt>
      <trkpt lat="46.55752" lon="6.04912">
        <ele>1152</ele>
        <time>2012-09-20T18:12:32+02:00</time>
      </trkpt>
      <trkpt lat="46.55744" lon="6.04906">
        <ele>1151</ele>
        <time>2012-09-20T18:12:36+02:00</time>
      </trkpt>
      <trkpt lat="46.55731" lon="6.0491">
        <ele>1150</ele>
        <time>2012-09-20T18:12:41+02:00</time>
      </trkpt>
      <trkpt lat="46.55719" lon="6.04902">
        <ele>1150</ele>
        <time>2012-09-20T18:12:45+02:00</time>
      </trkpt>
      <trkpt lat="46.55697" lon="6.04884">
        <ele>1149</ele>
        <time>2012-09-20T18:12:50+02:00</time>
      </trkpt>
      <trkpt lat="46.55686" lon="6.04881">
        <ele>1148</ele>
        <time>2012-09-20T18:12:54+02:00</time>
      </trkpt>
      <trkpt lat="46.55684" lon="6.04881">
        <ele>1148</ele>
        <time>2012-09-20T18:12:55+02:00</time>
      </trkpt>
      <trkpt lat="46.55667" lon="6.04881">
        <ele>1147</ele>
        <time>2012-09-20T18:13:01+02:00</time>
      </trkpt>
      <trkpt lat="46.55656" lon="6.04874">
        <ele>1136</ele>
        <time>2012-09-20T18:13:05+02:00</time>
      </trkpt>
      <trkpt lat="46.5565" lon="6.04869">
        <ele>1136</ele>
        <time>2012-09-20T18:13:07+02:00</time>
      </trkpt>
      <trkpt lat="46.55641" lon="6.04859">
        <ele>1136</ele>
        <time>2012-09-20T18:13:10+02:00</time>
      </trkpt>
      <trkpt lat="46.55634" lon="6.04839">
        <ele>1137</ele>
        <time>2012-09-20T18:13:14+02:00</time>
      </trkpt>
      <trkpt lat="46.55628" lon="6.04825">
        <ele>1146</ele>
        <time>2012-09-20T18:13:17+02:00</time>
      </trkpt>
      <trkpt lat="46.55622" lon="6.04801">
        <ele>1146</ele>
        <time>2012-09-20T18:13:21+02:00</time>
      </trkpt>
      <trkpt lat="46.55605" lon="6.04786">
        <ele>1146</ele>
        <time>2012-09-20T18:13:26+02:00</time>
      </trkpt>
      <trkpt lat="46.55593" lon="6.0478">
        <ele>1146</ele>
        <time>2012-09-20T18:13:29+02:00</time>
      </trkpt>
      <trkpt lat="46.55579" lon="6.04764">
        <ele>1139</ele>
        <time>2012-09-20T18:13:33+02:00</time>
      </trkpt>
      <trkpt lat="46.5557" lon="6.04754">
        <ele>1139</ele>
        <time>2012-09-20T18:13:37+02:00</time>
      </trkpt>
      <trkpt lat="46.55565" lon="6.04734">
        <ele>1145</ele>
        <time>2012-09-20T18:13:43+02:00</time>
      </trkpt>
      <trkpt lat="46.55564" lon="6.04723">
        <ele>1144</ele>
        <time>2012-09-20T18:13:46+02:00</time>
      </trkpt>
      <trkpt lat="46.55562" lon="6.04714">
        <ele>1144</ele>
        <time>2012-09-20T18:13:49+02:00</time>
      </trkpt>
      <trkpt lat="46.5556" lon="6.04701">
        <ele>1145</ele>
        <time>2012-09-20T18:13:54+02:00</time>
      </trkpt>
      <trkpt lat="46.55548" lon="6.04676">
        <ele>1145</ele>
        <time>2012-09-20T18:14:02+02:00</time>
      </trkpt>
      <trkpt lat="46.55543" lon="6.04661">
        <ele>1149</ele>
        <time>2012-09-20T18:14:07+02:00</time>
      </trkpt>
      <trkpt lat="46.5554" lon="6.0465">
        <ele>1149</ele>
        <time>2012-09-20T18:14:11+02:00</time>
      </trkpt>
      <trkpt lat="46.5553" lon="6.0464">
        <ele>1149</ele>
        <time>2012-09-20T18:14:38+02:00</time>
      </trkpt>
      <trkpt lat="46.55529" lon="6.04633">
        <ele>1149</ele>
        <time>2012-09-20T18:14:43+02:00</time>
      </trkpt>
      <trkpt lat="46.55539" lon="6.04615">
        <ele>1150</ele>
        <time>2012-09-20T18:14:49+02:00</time>
      </trkpt>
      <trkpt lat="46.55549" lon="6.04596">
        <ele>1150</ele>
        <time>2012-09-20T18:14:54+02:00</time>
      </trkpt>
      <trkpt lat="46.55567" lon="6.04573">
        <ele>1150</ele>
        <time>2012-09-20T18:14:58+02:00</time>
      </trkpt>
      <trkpt lat="46.55572" lon="6.04568">
        <ele>1150</ele>
        <time>2012-09-20T18:14:59+02:00</time>
      </trkpt>
      <trkpt lat="46.5559" lon="6.04562">
        <ele>1146</ele>
        <time>2012-09-20T18:15:03+02:00</time>
      </trkpt>
      <trkpt lat="46.55602" lon="6.04579">
        <ele>1147</ele>
        <time>2012-09-20T18:15:07+02:00</time>
      </trkpt>
      <trkpt lat="46.55617" lon="6.04594">
        <ele>1149</ele>
        <time>2012-09-20T18:15:11+02:00</time>
      </trkpt>
      <trkpt lat="46.55637" lon="6.04605">
        <ele>1148</ele>
        <time>2012-09-20T18:15:16+02:00</time>
      </trkpt>
      <trkpt lat="46.55646" lon="6.04613">
        <ele>1148</ele>
        <time>2012-09-20T18:15:18+02:00</time>
      </trkpt>
      <trkpt lat="46.55655" lon="6.04621">
        <ele>1148</ele>
        <time>2012-09-20T18:15:20+02:00</time>
      </trkpt>
      <trkpt lat="46.55676" lon="6.04634">
        <ele>1145</ele>
        <time>2012-09-20T18:15:24+02:00</time>
      </trkpt>
      <trkpt lat="46.55693" lon="6.04644">
        <ele>1145</ele>
        <time>2012-09-20T18:15:28+02:00</time>
      </trkpt>
      <trkpt lat="46.55702" lon="6.04651">
        <ele>1145</ele>
        <time>2012-09-20T18:15:32+02:00</time>
      </trkpt>
      <trkpt lat="46.5572" lon="6.04664">
        <ele>1145</ele>
        <time>2012-09-20T18:15:37+02:00</time>
      </trkpt>
      <trkpt lat="46.55748" lon="6.04679">
        <ele>1149</ele>
        <time>2012-09-20T18:15:43+02:00</time>
      </trkpt>
      <trkpt lat="46.55754" lon="6.04682">
        <ele>1149</ele>
        <time>2012-09-20T18:15:44+02:00</time>
      </trkpt>
      <trkpt lat="46.55773" lon="6.04692">
        <ele>1150</ele>
        <time>2012-09-20T18:15:48+02:00</time>
      </trkpt>
      <trkpt lat="46.55798" lon="6.0471">
        <ele>1151</ele>
        <time>2012-09-20T18:15:54+02:00</time>
      </trkpt>
      <trkpt lat="46.55821" lon="6.04725">
        <ele>1152</ele>
        <time>2012-09-20T18:15:59+02:00</time>
      </trkpt>
      <trkpt lat="46.55825" lon="6.04728">
        <ele>1152</ele>
        <time>2012-09-20T18:16:00+02:00</time>
      </trkpt>
      <trkpt lat="46.55837" lon="6.04739">
        <ele>1151</ele>
        <time>2012-09-20T18:16:03+02:00</time>
      </trkpt>
      <trkpt lat="46.55843" lon="6.04745">
        <ele>1151</ele>
        <time>2012-09-20T18:16:05+02:00</time>
      </trkpt>
      <trkpt lat="46.55854" lon="6.04751">
        <ele>1154</ele>
        <time>2012-09-20T18:16:08+02:00</time>
      </trkpt>
      <trkpt lat="46.55861" lon="6.04753">
        <ele>1153</ele>
        <time>2012-09-20T18:16:10+02:00</time>
      </trkpt>
      <trkpt lat="46.55878" lon="6.04767">
        <ele>1152</ele>
        <time>2012-09-20T18:16:15+02:00</time>
      </trkpt>
      <trkpt lat="46.55896" lon="6.04779">
        <ele>1152</ele>
        <time>2012-09-20T18:16:19+02:00</time>
      </trkpt>
      <trkpt lat="46.55928" lon="6.04797">
        <ele>1147</ele>
        <time>2012-09-20T18:16:25+02:00</time>
      </trkpt>
      <trkpt lat="46.55945" lon="6.04806">
        <ele>1147</ele>
        <time>2012-09-20T18:16:29+02:00</time>
      </trkpt>
      <trkpt lat="46.55959" lon="6.04816">
        <ele>1147</ele>
        <time>2012-09-20T18:16:32+02:00</time>
      </trkpt>
      <trkpt lat="46.55984" lon="6.04832">
        <ele>1146</ele>
        <time>2012-09-20T18:16:38+02:00</time>
      </trkpt>
      <trkpt lat="46.5601" lon="6.04843">
        <ele>1146</ele>
        <time>2012-09-20T18:16:44+02:00</time>
      </trkpt>
      <trkpt lat="46.56037" lon="6.04855">
        <ele>1146</ele>
        <time>2012-09-20T18:16:48+02:00</time>
      </trkpt>
      <trkpt lat="46.56042" lon="6.04849">
        <ele>1146</ele>
        <time>2012-09-20T18:16:51+02:00</time>
      </trkpt>
      <trkpt lat="46.56045" lon="6.0481">
        <ele>1142</ele>
        <time>2012-09-20T18:16:56+02:00</time>
      </trkpt>
      <trkpt lat="46.56047" lon="6.04792">
        <ele>1141</ele>
        <time>2012-09-20T18:16:58+02:00</time>
      </trkpt>
      <trkpt lat="46.56051" lon="6.04754">
        <ele>1140</ele>
        <time>2012-09-20T18:17:03+02:00</time>
      </trkpt>
      <trkpt lat="46.56068" lon="6.04716">
        <ele>1134</ele>
        <time>2012-09-20T18:17:09+02:00</time>
      </trkpt>
      <trkpt lat="46.56073" lon="6.04698">
        <ele>1133</ele>
        <time>2012-09-20T18:17:12+02:00</time>
      </trkpt>
      <trkpt lat="46.56072" lon="6.04676">
        <ele>1131</ele>
        <time>2012-09-20T18:17:16+02:00</time>
      </trkpt>
      <trkpt lat="46.56082" lon="6.04641">
        <ele>1125</ele>
        <time>2012-09-20T18:17:21+02:00</time>
      </trkpt>
      <trkpt lat="46.56089" lon="6.04613">
        <ele>1121</ele>
        <time>2012-09-20T18:17:25+02:00</time>
      </trkpt>
      <trkpt lat="46.56095" lon="6.04597">
        <ele>1119</ele>
        <time>2012-09-20T18:17:27+02:00</time>
      </trkpt>
      <trkpt lat="46.56104" lon="6.0458">
        <ele>1114</ele>
        <time>2012-09-20T18:17:29+02:00</time>
      </trkpt>
      <trkpt lat="46.56117" lon="6.04548">
        <ele>1112</ele>
        <time>2012-09-20T18:17:32+02:00</time>
      </trkpt>
      <trkpt lat="46.56136" lon="6.04509">
        <ele>1111</ele>
        <time>2012-09-20T18:17:36+02:00</time>
      </trkpt>
      <trkpt lat="46.56149" lon="6.04482">
        <ele>1106</ele>
        <time>2012-09-20T18:17:41+02:00</time>
      </trkpt>
      <trkpt lat="46.56147" lon="6.04481">
        <ele>1106</ele>
        <time>2012-09-20T18:17:43+02:00</time>
      </trkpt>
      <trkpt lat="46.56139" lon="6.04474">
        <ele>1106</ele>
        <time>2012-09-20T18:17:48+02:00</time>
      </trkpt>
      <trkpt lat="46.56118" lon="6.04444">
        <ele>1104</ele>
        <time>2012-09-20T18:19:33+02:00</time>
      </trkpt>
      <trkpt lat="46.56118" lon="6.04444">
        <ele>1104</ele>
        <time>2012-09-20T18:19:34+02:00</time>
      </trkpt>
      <trkpt lat="46.56118" lon="6.04443">
        <ele>1104</ele>
        <time>2012-09-20T18:19:35+02:00</time>
      </trkpt>
      <trkpt lat="46.5612" lon="6.04423">
        <ele>1103</ele>
        <time>2012-09-20T18:19:40+02:00</time>
      </trkpt>
      <trkpt lat="46.56121" lon="6.04417">
        <ele>1103</ele>
        <time>2012-09-20T18:19:41+02:00</time>
      </trkpt>
      <trkpt lat="46.56127" lon="6.04378">
        <ele>1097</ele>
        <time>2012-09-20T18:19:46+02:00</time>
      </trkpt>
      <trkpt lat="46.56125" lon="6.0434">
        <ele>1095</ele>
        <time>2012-09-20T18:19:50+02:00</time>
      </trkpt>
      <trkpt lat="46.56125" lon="6.04329">
        <ele>1089</ele>
        <time>2012-09-20T18:19:51+02:00</time>
      </trkpt>
      <trkpt lat="46.56125" lon="6.0428">
        <ele>1087</ele>
        <time>2012-09-20T18:19:56+02:00</time>
      </trkpt>
      <trkpt lat="46.56124" lon="6.04256">
        <ele>1086</ele>
        <time>2012-09-20T18:19:58+02:00</time>
      </trkpt>
      <trkpt lat="46.56123" lon="6.04235">
        <ele>1079</ele>
        <time>2012-09-20T18:20:00+02:00</time>
      </trkpt>
      <trkpt lat="46.56128" lon="6.04191">
        <ele>1077</ele>
        <time>2012-09-20T18:20:05+02:00</time>
      </trkpt>
      <trkpt lat="46.56133" lon="6.04161">
        <ele>1070</ele>
        <time>2012-09-20T18:20:08+02:00</time>
      </trkpt>
      <trkpt lat="46.56133" lon="6.04099">
        <ele>1066</ele>
        <time>2012-09-20T18:20:13+02:00</time>
      </trkpt>
      <trkpt lat="46.56132" lon="6.04048">
        <ele>1055</ele>
        <time>2012-09-20T18:20:18+02:00</time>
      </trkpt>
      <trkpt lat="46.56135" lon="6.04002">
        <ele>1052</ele>
        <time>2012-09-20T18:20:23+02:00</time>
      </trkpt>
      <trkpt lat="46.56147" lon="6.03963">
        <ele>1040</ele>
        <time>2012-09-20T18:20:28+02:00</time>
      </trkpt>
      <trkpt lat="46.56173" lon="6.03909">
        <ele>1032</ele>
        <time>2012-09-20T18:20:34+02:00</time>
      </trkpt>
      <trkpt lat="46.56189" lon="6.03876">
        <ele>1027</ele>
        <time>2012-09-20T18:20:38+02:00</time>
      </trkpt>
      <trkpt lat="46.56189" lon="6.03872">
        <ele>1026</ele>
        <time>2012-09-20T18:20:40+02:00</time>
      </trkpt>
    </trkseg>
  </trk>
</gpx>